sensor_id;sensor_type;location;lat;lon;timestamp;P1;durP1;ratioP1;P2;durP2;ratioP2
51485;SDS011;37565;51.352;6.412;2023-02-28T16:45:40;5.22;;;1.00;;
51485;SDS011;37565;51.352;6.412;2023-02-28T16:48:08;1.85;;;0.75;;
51485;SDS011;37565;51.352;6.412;2023-02-28T16:50:41;1.63;;;0.90;;
51485;SDS011;37565;51.352;6.412;2023-02-28T16:53:10;0.75;;;0.75;;
51485;SDS011;37565;51.352;6.412;2023-02-28T16:55:39;2.80;;;0.60;;
51485;SDS011;37565;51.352;6.412;2023-02-28T16:58:11;0.70;;;0.70;;
51485;SDS011;37565;51.352;6.412;2023-02-28T17:00:42;1.30;;;0.60;;
51485;SDS011;37565;51.352;6.412;2023-02-28T17:03:14;0.77;;;0.60;;
51485;SDS011;37565;51.352;6.412;2023-02-28T17:05:58;0.63;;;0.60;;
51485;SDS011;37565;51.352;6.412;2023-02-28T17:08:26;0.65;;;0.57;;
51485;SDS011;37565;51.352;6.412;2023-02-28T17:10:55;0.63;;;0.60;;
51485;SDS011;37565;51.352;6.412;2023-02-28T17:13:23;6.28;;;0.73;;
51485;SDS011;37565;51.352;6.412;2023-02-28T17:15:52;0.50;;;0.50;;
51485;SDS011;37565;51.352;6.412;2023-02-28T17:18:22;0.90;;;0.45;;
51485;SDS011;37565;51.352;6.412;2023-02-28T17:20:50;2.13;;;0.63;;
51485;SDS011;37565;51.352;6.412;2023-02-28T17:23:17;0.47;;;0.47;;
51485;SDS011;37565;51.352;6.412;2023-02-28T17:25:45;1.65;;;0.90;;
51485;SDS011;37565;51.352;6.412;2023-02-28T17:28:22;0.82;;;0.70;;
51485;SDS011;37565;51.352;6.412;2023-02-28T17:30:50;0.50;;;0.50;;
51485;SDS011;37565;51.352;6.412;2023-02-28T17:33:20;2.38;;;0.60;;
51485;SDS011;37565;51.352;6.412;2023-02-28T17:35:48;0.40;;;0.40;;
51485;SDS011;37565;51.352;6.412;2023-02-28T17:38:16;2.45;;;0.50;;
51485;SDS011;37565;51.352;6.412;2023-02-28T17:40:48;2.80;;;0.50;;
51485;SDS011;37565;51.352;6.412;2023-02-28T17:43:16;0.60;;;0.55;;
51485;SDS011;37565;51.352;6.412;2023-02-28T17:45:44;2.72;;;0.90;;
51485;SDS011;37565;51.352;6.412;2023-02-28T17:48:13;5.45;;;0.75;;
51485;SDS011;37565;51.352;6.412;2023-02-28T17:50:41;0.68;;;0.60;;
51485;SDS011;37565;51.352;6.412;2023-02-28T17:53:09;2.97;;;0.90;;
51485;SDS011;37565;51.352;6.412;2023-02-28T17:55:37;0.55;;;0.43;;
51485;SDS011;37565;51.352;6.412;2023-02-28T17:58:08;2.42;;;0.57;;
51485;SDS011;37565;51.352;6.412;2023-02-28T18:00:38;5.10;;;0.73;;
51485;SDS011;37565;51.352;6.412;2023-02-28T18:03:06;4.32;;;0.60;;
51485;SDS011;37565;51.352;6.412;2023-02-28T18:05:37;4.00;;;0.60;;
51485;SDS011;37565;51.352;6.412;2023-02-28T18:08:05;1.35;;;0.50;;
51485;SDS011;37565;51.352;6.412;2023-02-28T18:10:34;1.35;;;0.60;;
51485;SDS011;37565;51.352;6.412;2023-02-28T18:13:02;1.23;;;0.65;;
51485;SDS011;37565;51.352;6.412;2023-02-28T18:15:30;7.68;;;0.68;;
51485;SDS011;37565;51.352;6.412;2023-02-28T18:17:57;1.10;;;0.45;;
51485;SDS011;37565;51.352;6.412;2023-02-28T18:20:25;0.93;;;0.47;;
51485;SDS011;37565;51.352;6.412;2023-02-28T18:22:55;3.92;;;1.23;;
51485;SDS011;37565;51.352;6.412;2023-02-28T18:25:23;1.55;;;1.35;;
51485;SDS011;37565;51.352;6.412;2023-02-28T18:27:51;8.30;;;2.05;;
51485;SDS011;37565;51.352;6.412;2023-02-28T18:30:24;5.57;;;2.38;;
51485;SDS011;37565;51.352;6.412;2023-02-28T18:32:53;5.78;;;2.35;;
51485;SDS011;37565;51.352;6.412;2023-02-28T18:35:22;7.25;;;2.85;;
51485;SDS011;37565;51.352;6.412;2023-02-28T18:38:03;4.28;;;3.55;;
51485;SDS011;37565;51.352;6.412;2023-02-28T18:40:32;4.53;;;3.75;;
51485;SDS011;37565;51.352;6.412;2023-02-28T18:43:00;20.52;;;7.13;;
51485;SDS011;37565;51.352;6.412;2023-02-28T18:45:28;14.20;;;10.15;;
51485;SDS011;37565;51.352;6.412;2023-02-28T18:47:57;17.98;;;11.18;;
51485;SDS011;37565;51.352;6.412;2023-02-28T18:50:25;19.73;;;13.70;;
51485;SDS011;37565;51.352;6.412;2023-02-28T18:52:53;19.67;;;13.10;;
51485;SDS011;37565;51.352;6.412;2023-02-28T18:55:24;19.00;;;13.45;;
51485;SDS011;37565;51.352;6.412;2023-02-28T18:57:53;20.17;;;14.15;;
51485;SDS011;37565;51.352;6.412;2023-02-28T19:00:21;18.38;;;13.85;;
51485;SDS011;37565;51.352;6.412;2023-02-28T19:02:51;30.33;;;15.88;;
51485;SDS011;37565;51.352;6.412;2023-02-28T19:05:19;27.10;;;17.80;;
51485;SDS011;37565;51.352;6.412;2023-02-28T19:07:47;28.20;;;19.17;;
51485;SDS011;37565;51.352;6.412;2023-02-28T19:10:15;36.00;;;21.95;;
51485;SDS011;37565;51.352;6.412;2023-02-28T19:12:45;37.85;;;23.75;;
51485;SDS011;37565;51.352;6.412;2023-02-28T19:15:13;39.35;;;25.23;;
51485;SDS011;37565;51.352;6.412;2023-02-28T19:17:41;37.90;;;23.73;;
51485;SDS011;37565;51.352;6.412;2023-02-28T19:20:09;42.03;;;27.98;;
51485;SDS011;37565;51.352;6.412;2023-02-28T19:22:38;33.85;;;22.75;;
51485;SDS011;37565;51.352;6.412;2023-02-28T19:25:06;41.00;;;26.92;;
51485;SDS011;37565;51.352;6.412;2023-02-28T19:27:35;40.00;;;26.75;;
51485;SDS011;37565;51.352;6.412;2023-02-28T19:30:05;42.88;;;27.98;;
51485;SDS011;37565;51.352;6.412;2023-02-28T19:32:34;39.67;;;23.83;;
51485;SDS011;37565;51.352;6.412;2023-02-28T19:35:03;35.97;;;23.85;;
51485;SDS011;37565;51.352;6.412;2023-02-28T19:37:31;38.05;;;23.50;;
51485;SDS011;37565;51.352;6.412;2023-02-28T19:39:59;33.00;;;22.95;;
51485;SDS011;37565;51.352;6.412;2023-02-28T19:42:27;34.05;;;20.38;;
51485;SDS011;37565;51.352;6.412;2023-02-28T19:44:58;29.33;;;19.73;;
51485;SDS011;37565;51.352;6.412;2023-02-28T19:47:27;22.35;;;15.68;;
51485;SDS011;37565;51.352;6.412;2023-02-28T19:49:56;26.40;;;17.73;;
51485;SDS011;37565;51.352;6.412;2023-02-28T19:52:24;19.55;;;12.77;;
51485;SDS011;37565;51.352;6.412;2023-02-28T19:54:52;34.00;;;20.88;;
51485;SDS011;37565;51.352;6.412;2023-02-28T19:57:19;24.80;;;14.85;;
51485;SDS011;37565;51.352;6.412;2023-02-28T19:59:47;27.00;;;17.52;;
51485;SDS011;37565;51.352;6.412;2023-02-28T20:02:17;26.38;;;17.20;;
51485;SDS011;37565;51.352;6.412;2023-02-28T20:04:48;22.80;;;15.45;;
51485;SDS011;37565;51.352;6.412;2023-02-28T20:07:17;23.65;;;15.82;;
51485;SDS011;37565;51.352;6.412;2023-02-28T20:09:46;23.50;;;15.73;;
51485;SDS011;37565;51.352;6.412;2023-02-28T20:12:14;31.83;;;20.52;;
51485;SDS011;37565;51.352;6.412;2023-02-28T20:14:49;27.23;;;19.90;;
51485;SDS011;37565;51.352;6.412;2023-02-28T20:17:18;31.23;;;19.67;;
51485;SDS011;37565;51.352;6.412;2023-02-28T20:19:47;31.70;;;19.90;;
51485;SDS011;37565;51.352;6.412;2023-02-28T20:22:15;29.55;;;19.27;;
51485;SDS011;37565;51.352;6.412;2023-02-28T20:24:43;29.50;;;18.23;;
51485;SDS011;37565;51.352;6.412;2023-02-28T20:27:12;29.05;;;18.90;;
51485;SDS011;37565;51.352;6.412;2023-02-28T20:29:40;27.55;;;18.77;;
51485;SDS011;37565;51.352;6.412;2023-02-28T20:32:08;32.15;;;21.98;;
51485;SDS011;37565;51.352;6.412;2023-02-28T20:34:38;33.72;;;22.05;;
51485;SDS011;37565;51.352;6.412;2023-02-28T20:37:07;33.40;;;21.23;;
51485;SDS011;37565;51.352;6.412;2023-02-28T20:39:35;31.05;;;21.67;;
51485;SDS011;37565;51.352;6.412;2023-02-28T20:42:03;35.45;;;21.60;;
51485;SDS011;37565;51.352;6.412;2023-02-28T20:44:31;23.90;;;16.73;;
51485;SDS011;37565;51.352;6.412;2023-02-28T20:46:59;32.22;;;20.05;;
51485;SDS011;37565;51.352;6.412;2023-02-28T20:49:27;23.80;;;15.70;;
51485;SDS011;37565;51.352;6.412;2023-02-28T20:51:55;24.38;;;15.98;;
51485;SDS011;37565;51.352;6.412;2023-02-28T20:54:24;24.80;;;15.60;;
51485;SDS011;37565;51.352;6.412;2023-02-28T20:56:53;21.10;;;14.20;;
51485;SDS011;37565;51.352;6.412;2023-02-28T20:59:21;25.75;;;16.42;;
51485;SDS011;37565;51.352;6.412;2023-02-28T21:01:49;22.75;;;15.75;;
51485;SDS011;37565;51.352;6.412;2023-02-28T21:04:18;23.20;;;14.05;;
51485;SDS011;37565;51.352;6.412;2023-02-28T21:06:45;25.15;;;15.98;;
51485;SDS011;37565;51.352;6.412;2023-02-28T21:09:14;26.40;;;16.20;;
51485;SDS011;37565;51.352;6.412;2023-02-28T21:11:43;28.17;;;17.05;;
51485;SDS011;37565;51.352;6.412;2023-02-28T21:14:12;21.48;;;13.73;;
51485;SDS011;37565;51.352;6.412;2023-02-28T21:16:41;18.92;;;12.48;;
51485;SDS011;37565;51.352;6.412;2023-02-28T21:19:09;16.45;;;11.32;;
51485;SDS011;37565;51.352;6.412;2023-02-28T21:21:39;15.27;;;11.40;;
51485;SDS011;37565;51.352;6.412;2023-02-28T21:24:09;16.77;;;9.93;;
51485;SDS011;37565;51.352;6.412;2023-02-28T21:26:38;12.57;;;9.38;;
51485;SDS011;37565;51.352;6.412;2023-02-28T21:29:08;13.38;;;9.43;;
51485;SDS011;37565;51.352;6.412;2023-02-28T21:31:37;14.75;;;9.35;;
51485;SDS011;37565;51.352;6.412;2023-02-28T21:34:06;13.32;;;9.07;;
51485;SDS011;37565;51.352;6.412;2023-02-28T21:36:36;14.48;;;9.68;;
51485;SDS011;37565;51.352;6.412;2023-02-28T21:39:06;15.10;;;9.35;;
51485;SDS011;37565;51.352;6.412;2023-02-28T21:41:37;13.13;;;9.30;;
51485;SDS011;37565;51.352;6.412;2023-02-28T21:44:06;16.35;;;10.15;;
51485;SDS011;37565;51.352;6.412;2023-02-28T21:46:35;13.93;;;9.15;;
51485;SDS011;37565;51.352;6.412;2023-02-28T21:49:03;16.98;;;9.57;;
51485;SDS011;37565;51.352;6.412;2023-02-28T21:51:31;12.30;;;9.32;;
51485;SDS011;37565;51.352;6.412;2023-02-28T21:53:59;13.88;;;9.43;;
51485;SDS011;37565;51.352;6.412;2023-02-28T21:56:28;13.75;;;8.82;;
51485;SDS011;37565;51.352;6.412;2023-02-28T21:58:58;13.60;;;9.80;;
51485;SDS011;37565;51.352;6.412;2023-02-28T22:01:28;11.07;;;8.40;;
51485;SDS011;37565;51.352;6.412;2023-02-28T22:03:58;16.05;;;8.77;;
51485;SDS011;37565;51.352;6.412;2023-02-28T22:06:27;16.17;;;8.57;;
51485;SDS011;37565;51.352;6.412;2023-02-28T22:08:57;11.43;;;8.32;;
51485;SDS011;37565;51.352;6.412;2023-02-28T22:11:27;11.65;;;8.90;;
51485;SDS011;37565;51.352;6.412;2023-02-28T22:13:56;11.93;;;8.52;;
51485;SDS011;37565;51.352;6.412;2023-02-28T22:16:25;12.35;;;8.82;;
51485;SDS011;37565;51.352;6.412;2023-02-28T22:19:13;12.18;;;8.00;;
51485;SDS011;37565;51.352;6.412;2023-02-28T22:21:41;13.15;;;8.98;;
51485;SDS011;37565;51.352;6.412;2023-02-28T22:24:10;10.55;;;7.80;;
51485;SDS011;37565;51.352;6.412;2023-02-28T22:26:39;13.07;;;8.63;;
51485;SDS011;37565;51.352;6.412;2023-02-28T22:29:07;15.45;;;7.40;;
51485;SDS011;37565;51.352;6.412;2023-02-28T22:31:37;10.55;;;7.25;;
51485;SDS011;37565;51.352;6.412;2023-02-28T22:34:06;11.85;;;7.93;;
51485;SDS011;37565;51.352;6.412;2023-02-28T22:36:37;11.15;;;7.15;;
51485;SDS011;37565;51.352;6.412;2023-02-28T22:39:07;14.57;;;8.20;;
51485;SDS011;37565;51.352;6.412;2023-02-28T22:41:35;11.07;;;8.10;;
51485;SDS011;37565;51.352;6.412;2023-02-28T22:44:03;10.52;;;7.32;;
51485;SDS011;37565;51.352;6.412;2023-02-28T22:46:32;8.13;;;6.63;;
51485;SDS011;37565;51.352;6.412;2023-02-28T22:49:03;13.05;;;7.47;;
51485;SDS011;37565;51.352;6.412;2023-02-28T22:51:32;16.55;;;7.53;;
51485;SDS011;37565;51.352;6.412;2023-02-28T22:54:00;11.00;;;7.90;;
51485;SDS011;37565;51.352;6.412;2023-02-28T22:56:29;9.98;;;6.55;;
51485;SDS011;37565;51.352;6.412;2023-02-28T22:58:58;10.15;;;6.72;;
51485;SDS011;37565;51.352;6.412;2023-02-28T23:01:28;11.63;;;6.68;;
51485;SDS011;37565;51.352;6.412;2023-02-28T23:04:00;9.20;;;6.78;;
51485;SDS011;37565;51.352;6.412;2023-02-28T23:06:30;9.45;;;6.60;;
51485;SDS011;37565;51.352;6.412;2023-02-28T23:09:00;14.07;;;6.85;;
51485;SDS011;37565;51.352;6.412;2023-02-28T23:11:32;8.02;;;6.13;;
51485;SDS011;37565;51.352;6.412;2023-02-28T23:14:01;11.27;;;6.53;;
51485;SDS011;37565;51.352;6.412;2023-02-28T23:16:30;7.85;;;6.25;;
51485;SDS011;37565;51.352;6.412;2023-02-28T23:19:01;8.65;;;6.63;;
51485;SDS011;37565;51.352;6.412;2023-02-28T23:21:32;10.70;;;6.50;;
51485;SDS011;37565;51.352;6.412;2023-02-28T23:24:00;8.30;;;6.57;;
51485;SDS011;37565;51.352;6.412;2023-02-28T23:26:29;9.25;;;6.25;;
51485;SDS011;37565;51.352;6.412;2023-02-28T23:28:58;9.23;;;6.35;;
51485;SDS011;37565;51.352;6.412;2023-02-28T23:31:26;6.70;;;5.40;;
51485;SDS011;37565;51.352;6.412;2023-02-28T23:33:54;10.80;;;5.50;;
51485;SDS011;37565;51.352;6.412;2023-02-28T23:36:23;11.77;;;6.30;;
51485;SDS011;37565;51.352;6.412;2023-02-28T23:38:51;8.70;;;5.55;;
51485;SDS011;37565;51.352;6.412;2023-02-28T23:41:20;6.75;;;5.28;;
51485;SDS011;37565;51.352;6.412;2023-02-28T23:43:49;7.80;;;5.25;;
51485;SDS011;37565;51.352;6.412;2023-02-28T23:46:18;6.53;;;5.47;;
51485;SDS011;37565;51.352;6.412;2023-02-28T23:48:47;7.63;;;5.05;;
51485;SDS011;37565;51.352;6.412;2023-02-28T23:51:16;9.88;;;5.72;;
51485;SDS011;37565;51.352;6.412;2023-02-28T23:53:48;7.18;;;5.22;;
51485;SDS011;37565;51.352;6.412;2023-02-28T23:56:18;8.63;;;5.72;;
51485;SDS011;37565;51.352;6.412;2023-02-28T23:58:47;7.28;;;5.05;;
